Overview Statistics Trail Chart Weather Telemetry Raw packets
 

This is the latest recevied weather packets stored in our database for station/object 4S6DRJ-13. If no packets are shown the sender has not sent any weather packets the latest 10 day(s).

<< 502 503 504 505 506 507 508 >>
Time Temp. Humidity Pressure Rain* Wind** Luminosity Snow
1787682792 27.22° C 86% 1011.5 hPa 0 mm 0.89 m/s, 242° 0 W/m² -
1787682731 27.22° C 86% 1011.6 hPa 0 mm 0.89 m/s, 270° 0 W/m² -
1787682670 27.22° C 86% 1011.5 hPa 0 mm 0 m/s 0 W/m² -
1787682609 27.22° C 86% 1011.5 hPa 0 mm 1.79 m/s, 197° 0 W/m² -
1787682548 27.22° C 86% 1011.7 hPa 0 mm 1.34 m/s, 254° 0 W/m² -
1787682487 27.22° C 86% 1011.6 hPa 0 mm 0.89 m/s, 209° 0 W/m² -
1787682426 27.22° C 86% 1011.6 hPa 0 mm 0.89 m/s, 186° 0 W/m² -
1787682365 27.22° C 86% 1011.6 hPa 0 mm 1.34 m/s, 208° 0 W/m² -
1787682304 27.22° C 86% 1011.6 hPa 0 mm 1.34 m/s, 218° 0 W/m² -
1787682243 27.22° C 86% 1011.8 hPa 0 mm 0.45 m/s, 279° 0 W/m² -
1787682182 27.22° C 86% 1011.6 hPa 0 mm 0.89 m/s, 154° 0 W/m² -
1787682121 27.22° C 86% 1011.7 hPa 0 mm 0.89 m/s, 208° 0 W/m² -
1787682060 27.22° C 86% 1011.8 hPa 0 mm 1.79 m/s, 218° 0 W/m² -
1787681998 27.22° C 87% 1011.8 hPa 0 mm 0 m/s 0 W/m² -
1787681938 27.22° C 87% 1011.8 hPa 0 mm 1.34 m/s, 251° 0 W/m² -
1787681876 27.22° C 87% 1011.8 hPa 0 mm 1.34 m/s, 180° 0 W/m² -
1787681815 27.22° C 87% 1011.6 hPa 0 mm 0.45 m/s, 249° 0 W/m² -
1787681755 27.22° C 87% 1011.7 hPa 0 mm 0.89 m/s, 302° 0 W/m² -
1787681694 26.67° C 88% 1011.8 hPa 0 mm 2.24 m/s, 227° 0 W/m² -
1787681632 26.67° C 88% 1011.8 hPa 0 mm 2.68 m/s, 162° 0 W/m² -
1787681571 26.67° C 88% 1011.7 hPa 0 mm 2.68 m/s, 243° 0 W/m² -
1787681510 27.22° C 88% 1011.9 hPa 0 mm 1.34 m/s, 233° 0 W/m² -
1787681450 27.22° C 88% 1011.9 hPa 0 mm 1.79 m/s, 193° 0 W/m² -
1787681388 27.22° C 88% 1012.1 hPa 0 mm 0.89 m/s, 323° 0 W/m² -
1787681327 27.22° C 88% 1011.9 hPa 0 mm 0.89 m/s, 159° 0 W/m² -

* Rain latest hour (hover to see other rain measurements)
** Current wind speed in m/s (hover to see current wind gust speed)